Seneimaru — JG5357 — position and weather

sailwx.info

Track history (hours):
 
Tides and Currents Weather Stations Pressure Air Temp Water Temp Dewpoint Dewpoint Depression Visibility Wind Speed Wind Dir Waves Ship Positions

Seneimaru

Last reported at 2015-Apr-01 06:18 UTC. Time now 2015-Apr-01 10:42 UTC.
Position N 34°59' E 139°43'.

Length 72 m; draft 5.9 m.

Type: Cargo ship. MMSI: 431100477.

Date/timePositionNaut miles runAvg speedWind from/ knotsBaromVisibWave heightAir tempDewpointWater temp
2015-Apr-01 06:18N 34°59' E 139°43'7 9.1
2015-Apr-01 05:33N 35°06' E 139°45'10 9.8
2015-Apr-01 04:33N 35°16' E 139°46'9 9.5
2015-Apr-01 03:33N 35°25' E 139°43'5 4.8
2015-Apr-01 02:32N 35°30' E 139°43'0 0.5
2015-Apr-01 01:33N 35°30' E 139°43'0 0.0
2015-Apr-01 00:33N 35°30' E 139°43'0 0.0
2015-Mar-31 23:33N 35°30' E 139°43'0 0.0
2015-Mar-31 22:33N 35°30' E 139°43'0 0.0
2015-Mar-31 21:33N 35°30' E 139°43'0 0.0
2015-Mar-31 20:33N 35°30' E 139°43'0 0.0
2015-Mar-31 19:33N 35°30' E 139°43'0 0.0
2015-Mar-31 18:33N 35°30' E 139°43'0 0.0
2015-Mar-31 17:33N 35°30' E 139°43'0 0.0
2015-Mar-31 16:33N 35°30' E 139°43'0 0.0
2015-Mar-31 15:33N 35°30' E 139°43'0 0.0
2015-Mar-31 14:33N 35°30' E 139°43'0 0.0
2015-Mar-31 13:33N 35°30' E 139°43'0 0.0
2015-Mar-31 12:33N 35°30' E 139°43'0 0.0
2015-Mar-31 11:33N 35°30' E 139°43'0 0.0
2015-Mar-31 10:33N 35°30' E 139°43'0 0.0
2015-Mar-31 09:33N 35°30' E 139°43'0 0.0
2015-Mar-31 08:33N 35°30' E 139°43'0 0.0
2015-Mar-31 07:33N 35°30' E 139°43'0 0.0
2015-Mar-31 06:34N 35°30' E 139°43'0 0.0
2015-Mar-31 05:33N 35°30' E 139°43'0 0.0
2015-Mar-31 04:33N 35°30' E 139°43'1 1.3
2015-Mar-31 03:34N 35°29' E 139°42'6 5.6
2015-Mar-31 02:33N 35°24' E 139°44'0 0.0
2015-Mar-31 01:31N 35°24' E 139°44'0 0.0
2015-Mar-31 00:31N 35°24' E 139°44'0 0.0
2015-Mar-30 23:31N 35°24' E 139°44'0 0.0
2015-Mar-30 22:31N 35°24' E 139°44'0 0.0
2015-Mar-30 21:31N 35°24' E 139°44'0 0.0
2015-Mar-30 20:31N 35°24' E 139°44'0 0.0
2015-Mar-30 19:31N 35°24' E 139°44'0 0.0
2015-Mar-30 18:31N 35°24' E 139°44'0 0.0
2015-Mar-30 17:31N 35°24' E 139°44'0 0.0
2015-Mar-30 16:31N 35°24' E 139°44'0 0.0
2015-Mar-30 15:31N 35°24' E 139°44'0 0.0
2015-Mar-30 14:31N 35°24' E 139°44'6 6.1
2015-Mar-30 13:33N 35°18' E 139°45'1211.8
2015-Mar-30 12:33N 35°06' E 139°45'7 0.2
2015-Mar-29 04:33N 34°59' E 139°43'1110.7
2015-Mar-29 03:33N 35°09' E 139°46'1010.1
2015-Mar-29 02:33N 35°19' E 139°43'10 9.7
2015-Mar-29 01:33N 35°28' E 139°48'4 4.3
2015-Mar-29 00:33N 35°30' E 139°43'0 0.0
2015-Mar-28 23:33N 35°30' E 139°43'0 0.0
2015-Mar-28 22:33N 35°30' E 139°43'0 0.0
2015-Mar-28 21:33N 35°30' E 139°43'1 1.3
2015-Mar-28 20:33N 35°29' E 139°42'6 6.0
2015-Mar-28 19:32N 35°23' E 139°44'0 0.0
2015-Mar-28 18:32N 35°23' E 139°44'0 0.0
2015-Mar-28 17:32N 35°23' E 139°44'3 3.3
2015-Mar-28 16:33N 35°20' E 139°43'1211.5
2015-Mar-28 15:33N 35°09' E 139°46'1211.7
2015-Mar-28 14:31N 34°57' E 139°44'2 0.1
2015-Mar-27 06:32N 34°58' E 139°43'1110.8
2015-Mar-27 05:33N 35°09' E 139°45'1110.9
2015-Mar-27 04:33N 35°20' E 139°43'1010.1
2015-Mar-27 03:33N 35°29' E 139°47'4 3.8
2015-Mar-27 02:33N 35°30' E 139°43'0 0.0
2015-Mar-27 01:34N 35°30' E 139°43'0 0.0
2015-Mar-27 00:33N 35°30' E 139°43'0 0.0
2015-Mar-26 23:33N 35°30' E 139°43'0 0.0
2015-Mar-26 22:33N 35°30' E 139°43'3 3.4
2015-Mar-26 21:33N 35°27' E 139°44'3 3.3
2015-Mar-26 20:33N 35°24' E 139°46'1010.5
2015-Mar-26 19:33N 35°14' E 139°47'1212.0
2015-Mar-26 18:33N 35°02' E 139°44'6 0.2
2015-Mar-25 10:30N 34°56' E 139°44'1010.8
2015-Mar-25 09:33N 35°06' E 139°45'1110.7
2015-Mar-25 08:33N 35°17' E 139°45'10 9.5
2015-Mar-25 07:33N 35°26' E 139°45'4 4.1
2015-Mar-25 06:33N 35°30' E 139°43'0 0.0
2015-Mar-25 05:33N 35°30' E 139°43'0 0.0
2015-Mar-25 04:33N 35°30' E 139°43'0 0.0
2015-Mar-25 03:33N 35°30' E 139°43'0 0.0
2015-Mar-25 02:34N 35°30' E 139°43'0 0.0
2015-Mar-25 01:33N 35°30' E 139°43'0 0.0
2015-Mar-25 00:33N 35°30' E 139°43'0 0.0
2015-Mar-24 23:33N 35°30' E 139°43'0 0.0
2015-Mar-24 22:33N 35°30' E 139°43'0 0.0
2015-Mar-24 21:33N 35°30' E 139°43'0 0.0
2015-Mar-24 20:33N 35°30' E 139°43'0 0.0
2015-Mar-24 19:33N 35°30' E 139°43'0 0.0
2015-Mar-24 18:33N 35°30' E 139°43'0 0.0
2015-Mar-24 17:33N 35°30' E 139°43'0 0.0
2015-Mar-24 16:33N 35°30' E 139°43'0 0.0
2015-Mar-24 15:33N 35°30' E 139°43'0 0.0
2015-Mar-24 14:33N 35°30' E 139°43'0 0.0
2015-Mar-24 13:34N 35°30' E 139°43'0 0.0
2015-Mar-24 12:33N 35°30' E 139°43'0 0.0
2015-Mar-24 11:33N 35°30' E 139°43'0 0.0
2015-Mar-24 10:34N 35°30' E 139°43'0 0.0
2015-Mar-24 09:33N 35°30' E 139°43'0 0.0
2015-Mar-24 08:33N 35°30' E 139°43'0 0.0
2015-Mar-24 07:33N 35°30' E 139°43'0 0.0
2015-Mar-24 06:33N 35°30' E 139°43'4 4.5
2015-Mar-24 05:33N 35°26' E 139°43'2 2.4
2015-Mar-24 04:33N 35°23' E 139°44'0 0.0
2015-Mar-24 03:33N 35°23' E 139°44'0 0.0
2015-Mar-24 02:33N 35°23' E 139°44'0 0.0
2015-Mar-24 01:33N 35°23' E 139°44'0 0.0
2015-Mar-24 00:33N 35°23' E 139°44'0 0.0
2015-Mar-23 23:33N 35°23' E 139°44'0 0.0
2015-Mar-23 22:33N 35°23' E 139°44'0 0.0
2015-Mar-23 21:33N 35°23' E 139°44'0 0.1
2015-Mar-23 20:30N 35°23' E 139°44'0 0.1
2015-Mar-23 19:33N 35°23' E 139°44'0 0.0
2015-Mar-23 18:33N 35°23' E 139°44'0 0.0
2015-Mar-23 17:34N 35°23' E 139°44'10 9.9
2015-Mar-23 16:33N 35°14' E 139°47'1212.4
2015-Mar-23 15:33N 35°01' E 139°44'  
Track history (hours):
 
Tides and Currents Weather Stations Pressure Air Temp Water Temp Dewpoint Dewpoint Depression Visibility Wind Speed Wind Dir Waves Ship Positions

Seneimaru

Last reported at 2015-Apr-01 06:18 UTC. Time now 2015-Apr-01 10:42 UTC.
Position N 34°59' E 139°43'.

Length 72 m; draft 5.9 m.

Type: Cargo ship. MMSI: 431100477.

Date/timePositionNaut miles runAvg speedWind from/ knotsBaromVisibWave heightAir tempDewpointWater temp
2015-Apr-01 06:18N 34°59' E 139°43'7 9.1
2015-Apr-01 05:33N 35°06' E 139°45'10 9.8
2015-Apr-01 04:33N 35°16' E 139°46'9 9.5
2015-Apr-01 03:33N 35°25' E 139°43'5 4.8
2015-Apr-01 02:32N 35°30' E 139°43'0 0.5
2015-Apr-01 01:33N 35°30' E 139°43'0 0.0
2015-Apr-01 00:33N 35°30' E 139°43'0 0.0
2015-Mar-31 23:33N 35°30' E 139°43'0 0.0
2015-Mar-31 22:33N 35°30' E 139°43'0 0.0
2015-Mar-31 21:33N 35°30' E 139°43'0 0.0
2015-Mar-31 20:33N 35°30' E 139°43'0 0.0
2015-Mar-31 19:33N 35°30' E 139°43'0 0.0
2015-Mar-31 18:33N 35°30' E 139°43'0 0.0
2015-Mar-31 17:33N 35°30' E 139°43'0 0.0
2015-Mar-31 16:33N 35°30' E 139°43'0 0.0
2015-Mar-31 15:33N 35°30' E 139°43'0 0.0
2015-Mar-31 14:33N 35°30' E 139°43'0 0.0
2015-Mar-31 13:33N 35°30' E 139°43'0 0.0
2015-Mar-31 12:33N 35°30' E 139°43'0 0.0
2015-Mar-31 11:33N 35°30' E 139°43'0 0.0
2015-Mar-31 10:33N 35°30' E 139°43'0 0.0
2015-Mar-31 09:33N 35°30' E 139°43'0 0.0
2015-Mar-31 08:33N 35°30' E 139°43'0 0.0
2015-Mar-31 07:33N 35°30' E 139°43'0 0.0
2015-Mar-31 06:34N 35°30' E 139°43'0 0.0
2015-Mar-31 05:33N 35°30' E 139°43'0 0.0
2015-Mar-31 04:33N 35°30' E 139°43'1 1.3
2015-Mar-31 03:34N 35°29' E 139°42'6 5.6
2015-Mar-31 02:33N 35°24' E 139°44'0 0.0
2015-Mar-31 01:31N 35°24' E 139°44'0 0.0
2015-Mar-31 00:31N 35°24' E 139°44'0 0.0
2015-Mar-30 23:31N 35°24' E 139°44'0 0.0
2015-Mar-30 22:31N 35°24' E 139°44'0 0.0
2015-Mar-30 21:31N 35°24' E 139°44'0 0.0
2015-Mar-30 20:31N 35°24' E 139°44'0 0.0
2015-Mar-30 19:31N 35°24' E 139°44'0 0.0
2015-Mar-30 18:31N 35°24' E 139°44'0 0.0
2015-Mar-30 17:31N 35°24' E 139°44'0 0.0
2015-Mar-30 16:31N 35°24' E 139°44'0 0.0
2015-Mar-30 15:31N 35°24' E 139°44'0 0.0
2015-Mar-30 14:31N 35°24' E 139°44'6 6.1
2015-Mar-30 13:33N 35°18' E 139°45'1211.8
2015-Mar-30 12:33N 35°06' E 139°45'7 0.2
2015-Mar-29 04:33N 34°59' E 139°43'1110.7
2015-Mar-29 03:33N 35°09' E 139°46'1010.1
2015-Mar-29 02:33N 35°19' E 139°43'10 9.7
2015-Mar-29 01:33N 35°28' E 139°48'4 4.3
2015-Mar-29 00:33N 35°30' E 139°43'0 0.0
2015-Mar-28 23:33N 35°30' E 139°43'0 0.0
2015-Mar-28 22:33N 35°30' E 139°43'0 0.0
2015-Mar-28 21:33N 35°30' E 139°43'1 1.3
2015-Mar-28 20:33N 35°29' E 139°42'6 6.0
2015-Mar-28 19:32N 35°23' E 139°44'0 0.0
2015-Mar-28 18:32N 35°23' E 139°44'0 0.0
2015-Mar-28 17:32N 35°23' E 139°44'3 3.3
2015-Mar-28 16:33N 35°20' E 139°43'1211.5
2015-Mar-28 15:33N 35°09' E 139°46'1211.7
2015-Mar-28 14:31N 34°57' E 139°44'2 0.1
2015-Mar-27 06:32N 34°58' E 139°43'1110.8
2015-Mar-27 05:33N 35°09' E 139°45'1110.9
2015-Mar-27 04:33N 35°20' E 139°43'1010.1
2015-Mar-27 03:33N 35°29' E 139°47'4 3.8
2015-Mar-27 02:33N 35°30' E 139°43'0 0.0
2015-Mar-27 01:34N 35°30' E 139°43'0 0.0
2015-Mar-27 00:33N 35°30' E 139°43'0 0.0
2015-Mar-26 23:33N 35°30' E 139°43'0 0.0
2015-Mar-26 22:33N 35°30' E 139°43'3 3.4
2015-Mar-26 21:33N 35°27' E 139°44'3 3.3
2015-Mar-26 20:33N 35°24' E 139°46'1010.5
2015-Mar-26 19:33N 35°14' E 139°47'1212.0
2015-Mar-26 18:33N 35°02' E 139°44'6 0.2
2015-Mar-25 10:30N 34°56' E 139°44'1010.8
2015-Mar-25 09:33N 35°06' E 139°45'1110.7
2015-Mar-25 08:33N 35°17' E 139°45'10 9.5
2015-Mar-25 07:33N 35°26' E 139°45'4 4.1
2015-Mar-25 06:33N 35°30' E 139°43'0 0.0
2015-Mar-25 05:33N 35°30' E 139°43'0 0.0
2015-Mar-25 04:33N 35°30' E 139°43'0 0.0
2015-Mar-25 03:33N 35°30' E 139°43'0 0.0
2015-Mar-25 02:34N 35°30' E 139°43'0 0.0
2015-Mar-25 01:33N 35°30' E 139°43'0 0.0
2015-Mar-25 00:33N 35°30' E 139°43'0 0.0
2015-Mar-24 23:33N 35°30' E 139°43'0 0.0
2015-Mar-24 22:33N 35°30' E 139°43'0 0.0
2015-Mar-24 21:33N 35°30' E 139°43'0 0.0
2015-Mar-24 20:33N 35°30' E 139°43'0 0.0
2015-Mar-24 19:33N 35°30' E 139°43'0 0.0
2015-Mar-24 18:33N 35°30' E 139°43'0 0.0
2015-Mar-24 17:33N 35°30' E 139°43'0 0.0
2015-Mar-24 16:33N 35°30' E 139°43'0 0.0
2015-Mar-24 15:33N 35°30' E 139°43'0 0.0
2015-Mar-24 14:33N 35°30' E 139°43'0 0.0
2015-Mar-24 13:34N 35°30' E 139°43'0 0.0
2015-Mar-24 12:33N 35°30' E 139°43'0 0.0
2015-Mar-24 11:33N 35°30' E 139°43'0 0.0
2015-Mar-24 10:34N 35°30' E 139°43'0 0.0
2015-Mar-24 09:33N 35°30' E 139°43'0 0.0
2015-Mar-24 08:33N 35°30' E 139°43'0 0.0
2015-Mar-24 07:33N 35°30' E 139°43'0 0.0
2015-Mar-24 06:33N 35°30' E 139°43'4 4.5
2015-Mar-24 05:33N 35°26' E 139°43'2 2.4
2015-Mar-24 04:33N 35°23' E 139°44'0 0.0
2015-Mar-24 03:33N 35°23' E 139°44'0 0.0
2015-Mar-24 02:33N 35°23' E 139°44'0 0.0
2015-Mar-24 01:33N 35°23' E 139°44'0 0.0
2015-Mar-24 00:33N 35°23' E 139°44'0 0.0
2015-Mar-23 23:33N 35°23' E 139°44'0 0.0
2015-Mar-23 22:33N 35°23' E 139°44'0 0.0
2015-Mar-23 21:33N 35°23' E 139°44'0 0.1
2015-Mar-23 20:30N 35°23' E 139°44'0 0.1
2015-Mar-23 19:33N 35°23' E 139°44'0 0.0
2015-Mar-23 18:33N 35°23' E 139°44'0 0.0
2015-Mar-23 17:34N 35°23' E 139°44'10 9.9
2015-Mar-23 16:33N 35°14' E 139°47'1212.4
2015-Mar-23 15:33N 35°01' E 139°44'  

Dump ship's entire track history